Decoded Metar for YSNF (NORFOLK ISLAND in AUSTRALIA) (IATA:NLK) | Meteo·Mobile Aviation Weather
aviador You're here:

YSNF Decoded Metar

NORFOLK ISLAND in AUSTRALIA
Report Time2018-09-20 04:00:00
UTC Time2018-09-20 04:23:52
Flight Rules vfr VFR
Wind230° at 10 kt
W.Decomp.*RWY 22: 10.0 kt HW 0.9 kt LCW
RWY 29: 2.6 kt HW 9.7 kt LCW
W.Rank230° ranks 16
Current wind is below 230° avg. (10.3)
Visibility9999 m
Phenomena:N/A
Clouds:Broken 042 Hf
Expected CloudBase > 3,600 ft AGL from Temp-Dew spread
Ceiling4,200 ft
Temp17°C (ISA +3)
Dew Point08°C (56% RH)
AAT13.0°C
QNH1015 hPa
Density Alt758 ft
Elevation358 ft
Report Wrong Elevation
Raw Report
YSNF 200400Z AUTO 23010KT 9999 // BKN042 17/08 Q1015=

Extra information for YSNF:More info

Metar Taf Metar & Taf Last 4 Metars F.Rules Stats Wind Profile Meteogram Temp Stats Airport Information Weather charts Add Link Nearby VenuesMetar ALERT Operation Metar Decoded Social comments